sensor_id;sensor_type;location;lat;lon;timestamp;temperature;humidity
12752;DHT22;6440;44.616;2.032;2022-07-29T00:00:58;19.00;99.50
12752;DHT22;6440;44.616;2.032;2022-07-29T00:03:27;19.00;99.60
12752;DHT22;6440;44.616;2.032;2022-07-29T00:05:56;18.90;99.90
12752;DHT22;6440;44.616;2.032;2022-07-29T00:08:24;18.80;99.90
12752;DHT22;6440;44.616;2.032;2022-07-29T00:10:53;18.80;99.90
12752;DHT22;6440;44.616;2.032;2022-07-29T00:13:21;18.80;99.90
12752;DHT22;6440;44.616;2.032;2022-07-29T00:15:50;18.70;99.90
12752;DHT22;6440;44.616;2.032;2022-07-29T00:18:20;18.70;99.90
12752;DHT22;6440;44.616;2.032;2022-07-29T00:20:49;18.70;99.90
12752;DHT22;6440;44.616;2.032;2022-07-29T00:23:17;18.70;99.90
12752;DHT22;6440;44.616;2.032;2022-07-29T00:25:46;18.60;99.90
12752;DHT22;6440;44.616;2.032;2022-07-29T00:28:15;18.60;99.90
12752;DHT22;6440;44.616;2.032;2022-07-29T00:30:44;18.60;99.90
12752;DHT22;6440;44.616;2.032;2022-07-29T00:33:13;18.60;99.90
12752;DHT22;6440;44.616;2.032;2022-07-29T00:35:42;18.60;99.90
12752;DHT22;6440;44.616;2.032;2022-07-29T00:38:12;18.60;99.90
12752;DHT22;6440;44.616;2.032;2022-07-29T00:40:40;18.60;99.90
12752;DHT22;6440;44.616;2.032;2022-07-29T00:43:08;18.60;99.90
12752;DHT22;6440;44.616;2.032;2022-07-29T00:45:37;18.60;99.90
12752;DHT22;6440;44.616;2.032;2022-07-29T00:48:05;18.60;99.90
12752;DHT22;6440;44.616;2.032;2022-07-29T00:50:34;18.60;99.90
12752;DHT22;6440;44.616;2.032;2022-07-29T00:53:03;18.50;99.90
12752;DHT22;6440;44.616;2.032;2022-07-29T00:55:30;18.50;99.90
12752;DHT22;6440;44.616;2.032;2022-07-29T00:57:58;18.50;99.90
12752;DHT22;6440;44.616;2.032;2022-07-29T01:00:26;18.50;99.90
12752;DHT22;6440;44.616;2.032;2022-07-29T01:02:54;18.50;99.90
12752;DHT22;6440;44.616;2.032;2022-07-29T01:05:24;18.50;99.90
12752;DHT22;6440;44.616;2.032;2022-07-29T01:07:51;18.50;99.90
12752;DHT22;6440;44.616;2.032;2022-07-29T01:10:19;18.50;99.90
12752;DHT22;6440;44.616;2.032;2022-07-29T01:12:47;18.50;99.90
12752;DHT22;6440;44.616;2.032;2022-07-29T01:15:15;18.50;99.90
12752;DHT22;6440;44.616;2.032;2022-07-29T01:17:50;18.50;99.90
12752;DHT22;6440;44.616;2.032;2022-07-29T01:23:29;18.40;99.90
12752;DHT22;6440;44.616;2.032;2022-07-29T01:28:46;18.30;99.90
12752;DHT22;6440;44.616;2.032;2022-07-29T01:31:10;18.30;99.90
12752;DHT22;6440;44.616;2.032;2022-07-29T01:33:41;18.30;99.90
12752;DHT22;6440;44.616;2.032;2022-07-29T01:36:13;18.30;99.90
12752;DHT22;6440;44.616;2.032;2022-07-29T01:38:41;18.30;99.90
12752;DHT22;6440;44.616;2.032;2022-07-29T01:41:09;18.30;99.90
12752;DHT22;6440;44.616;2.032;2022-07-29T01:43:41;18.30;99.90
12752;DHT22;6440;44.616;2.032;2022-07-29T01:46:09;18.20;99.90
12752;DHT22;6440;44.616;2.032;2022-07-29T01:48:42;18.20;99.90
12752;DHT22;6440;44.616;2.032;2022-07-29T01:51:20;18.20;99.90
12752;DHT22;6440;44.616;2.032;2022-07-29T01:56:31;18.20;99.90
12752;DHT22;6440;44.616;2.032;2022-07-29T01:58:59;18.20;99.90
12752;DHT22;6440;44.616;2.032;2022-07-29T02:01:27;18.20;99.90
12752;DHT22;6440;44.616;2.032;2022-07-29T02:03:55;18.10;99.90
12752;DHT22;6440;44.616;2.032;2022-07-29T02:06:23;18.10;99.90
12752;DHT22;6440;44.616;2.032;2022-07-29T02:08:51;18.10;99.90
12752;DHT22;6440;44.616;2.032;2022-07-29T02:11:20;18.00;99.90
12752;DHT22;6440;44.616;2.032;2022-07-29T02:13:49;18.00;99.90
12752;DHT22;6440;44.616;2.032;2022-07-29T02:16:17;17.90;99.90
12752;DHT22;6440;44.616;2.032;2022-07-29T02:18:45;17.90;99.90
12752;DHT22;6440;44.616;2.032;2022-07-29T02:21:13;17.80;99.90
12752;DHT22;6440;44.616;2.032;2022-07-29T02:23:41;17.90;99.90
12752;DHT22;6440;44.616;2.032;2022-07-29T02:26:09;17.90;99.90
12752;DHT22;6440;44.616;2.032;2022-07-29T02:28:38;17.90;99.90
12752;DHT22;6440;44.616;2.032;2022-07-29T02:31:06;17.90;99.90
12752;DHT22;6440;44.616;2.032;2022-07-29T02:33:34;17.90;99.90
12752;DHT22;6440;44.616;2.032;2022-07-29T02:36:03;17.80;99.90
12752;DHT22;6440;44.616;2.032;2022-07-29T02:38:31;17.80;99.90
12752;DHT22;6440;44.616;2.032;2022-07-29T02:41:10;17.80;99.90
12752;DHT22;6440;44.616;2.032;2022-07-29T02:43:36;17.70;99.90
12752;DHT22;6440;44.616;2.032;2022-07-29T02:46:06;17.80;99.90
12752;DHT22;6440;44.616;2.032;2022-07-29T02:48:38;17.70;99.90
12752;DHT22;6440;44.616;2.032;2022-07-29T02:51:08;17.70;99.90
12752;DHT22;6440;44.616;2.032;2022-07-29T02:53:35;17.70;99.90
12752;DHT22;6440;44.616;2.032;2022-07-29T02:56:06;17.70;99.90
12752;DHT22;6440;44.616;2.032;2022-07-29T02:58:34;17.80;99.90
12752;DHT22;6440;44.616;2.032;2022-07-29T03:01:03;17.80;99.90
12752;DHT22;6440;44.616;2.032;2022-07-29T03:03:32;17.80;99.90
12752;DHT22;6440;44.616;2.032;2022-07-29T03:05:59;17.80;99.90
12752;DHT22;6440;44.616;2.032;2022-07-29T03:08:27;17.70;99.90
12752;DHT22;6440;44.616;2.032;2022-07-29T03:10:56;17.70;99.90
12752;DHT22;6440;44.616;2.032;2022-07-29T03:13:24;17.60;99.90
12752;DHT22;6440;44.616;2.032;2022-07-29T03:15:52;17.60;99.90
12752;DHT22;6440;44.616;2.032;2022-07-29T03:18:20;17.50;99.90
12752;DHT22;6440;44.616;2.032;2022-07-29T03:20:48;17.50;99.90
12752;DHT22;6440;44.616;2.032;2022-07-29T03:23:19;17.50;99.90
12752;DHT22;6440;44.616;2.032;2022-07-29T03:25:47;17.50;99.90
12752;DHT22;6440;44.616;2.032;2022-07-29T03:28:15;17.50;99.90
12752;DHT22;6440;44.616;2.032;2022-07-29T03:30:44;17.60;99.90
12752;DHT22;6440;44.616;2.032;2022-07-29T03:33:12;17.60;99.90
12752;DHT22;6440;44.616;2.032;2022-07-29T03:35:41;17.50;99.90
12752;DHT22;6440;44.616;2.032;2022-07-29T03:38:09;17.50;99.90
12752;DHT22;6440;44.616;2.032;2022-07-29T03:40:41;17.40;99.90
12752;DHT22;6440;44.616;2.032;2022-07-29T03:43:08;17.40;99.90
12752;DHT22;6440;44.616;2.032;2022-07-29T03:45:36;17.40;99.90
12752;DHT22;6440;44.616;2.032;2022-07-29T03:48:08;17.40;99.90
12752;DHT22;6440;44.616;2.032;2022-07-29T03:50:35;17.40;99.90
12752;DHT22;6440;44.616;2.032;2022-07-29T03:53:03;17.50;99.90
12752;DHT22;6440;44.616;2.032;2022-07-29T03:55:33;17.50;99.90
12752;DHT22;6440;44.616;2.032;2022-07-29T03:58:00;17.40;99.90
12752;DHT22;6440;44.616;2.032;2022-07-29T04:00:28;17.50;99.90
12752;DHT22;6440;44.616;2.032;2022-07-29T04:02:56;17.50;99.90
12752;DHT22;6440;44.616;2.032;2022-07-29T04:05:25;17.40;99.90
12752;DHT22;6440;44.616;2.032;2022-07-29T04:07:53;17.50;99.90
12752;DHT22;6440;44.616;2.032;2022-07-29T04:10:22;17.50;99.90
12752;DHT22;6440;44.616;2.032;2022-07-29T04:12:51;17.40;99.90
12752;DHT22;6440;44.616;2.032;2022-07-29T04:15:20;17.40;99.90
12752;DHT22;6440;44.616;2.032;2022-07-29T04:17:49;17.50;99.90
12752;DHT22;6440;44.616;2.032;2022-07-29T04:20:17;17.50;99.90
12752;DHT22;6440;44.616;2.032;2022-07-29T04:22:46;17.50;99.90
12752;DHT22;6440;44.616;2.032;2022-07-29T04:25:16;17.50;99.90
12752;DHT22;6440;44.616;2.032;2022-07-29T04:27:45;17.50;99.90
12752;DHT22;6440;44.616;2.032;2022-07-29T04:30:20;17.50;99.90
12752;DHT22;6440;44.616;2.032;2022-07-29T04:32:49;17.60;99.90
12752;DHT22;6440;44.616;2.032;2022-07-29T04:35:18;17.60;99.90
12752;DHT22;6440;44.616;2.032;2022-07-29T04:37:46;17.60;99.90
12752;DHT22;6440;44.616;2.032;2022-07-29T04:40:15;17.60;99.90
12752;DHT22;6440;44.616;2.032;2022-07-29T04:42:44;17.70;99.90
12752;DHT22;6440;44.616;2.032;2022-07-29T04:45:13;17.70;99.90
12752;DHT22;6440;44.616;2.032;2022-07-29T04:47:41;17.70;99.90
12752;DHT22;6440;44.616;2.032;2022-07-29T04:50:10;17.70;99.90
12752;DHT22;6440;44.616;2.032;2022-07-29T04:52:39;17.70;99.90
12752;DHT22;6440;44.616;2.032;2022-07-29T04:55:09;17.70;99.90
12752;DHT22;6440;44.616;2.032;2022-07-29T04:57:38;17.70;99.90
12752;DHT22;6440;44.616;2.032;2022-07-29T05:00:07;17.80;99.90
12752;DHT22;6440;44.616;2.032;2022-07-29T05:02:37;17.80;99.90
12752;DHT22;6440;44.616;2.032;2022-07-29T05:05:07;17.80;99.90
12752;DHT22;6440;44.616;2.032;2022-07-29T05:07:36;17.80;99.90
12752;DHT22;6440;44.616;2.032;2022-07-29T05:10:06;17.70;99.90
12752;DHT22;6440;44.616;2.032;2022-07-29T05:12:35;17.80;99.90
12752;DHT22;6440;44.616;2.032;2022-07-29T05:15:04;17.80;99.90
12752;DHT22;6440;44.616;2.032;2022-07-29T05:17:34;17.80;99.90
12752;DHT22;6440;44.616;2.032;2022-07-29T05:20:03;17.80;99.90
12752;DHT22;6440;44.616;2.032;2022-07-29T05:22:33;17.80;99.90
12752;DHT22;6440;44.616;2.032;2022-07-29T05:25:02;17.80;99.90
12752;DHT22;6440;44.616;2.032;2022-07-29T05:27:31;17.80;99.90
12752;DHT22;6440;44.616;2.032;2022-07-29T05:30:00;17.90;99.90
12752;DHT22;6440;44.616;2.032;2022-07-29T05:32:29;17.90;99.90
12752;DHT22;6440;44.616;2.032;2022-07-29T05:34:58;17.90;99.90
12752;DHT22;6440;44.616;2.032;2022-07-29T05:37:27;18.00;99.90
12752;DHT22;6440;44.616;2.032;2022-07-29T05:39:56;18.00;99.90
12752;DHT22;6440;44.616;2.032;2022-07-29T05:42:25;18.00;99.90
12752;DHT22;6440;44.616;2.032;2022-07-29T05:44:53;17.90;99.90
12752;DHT22;6440;44.616;2.032;2022-07-29T05:47:21;17.80;99.90
12752;DHT22;6440;44.616;2.032;2022-07-29T05:49:49;17.70;99.90
12752;DHT22;6440;44.616;2.032;2022-07-29T05:52:18;17.70;99.90
12752;DHT22;6440;44.616;2.032;2022-07-29T05:54:47;17.70;99.90
12752;DHT22;6440;44.616;2.032;2022-07-29T05:57:17;17.80;99.90
12752;DHT22;6440;44.616;2.032;2022-07-29T05:59:45;17.80;99.90
12752;DHT22;6440;44.616;2.032;2022-07-29T06:02:13;17.90;99.90
12752;DHT22;6440;44.616;2.032;2022-07-29T06:04:41;18.00;99.90
12752;DHT22;6440;44.616;2.032;2022-07-29T06:07:10;18.20;99.90
12752;DHT22;6440;44.616;2.032;2022-07-29T06:09:39;18.30;99.90
12752;DHT22;6440;44.616;2.032;2022-07-29T06:12:08;18.30;99.90
12752;DHT22;6440;44.616;2.032;2022-07-29T06:14:36;18.30;99.90
12752;DHT22;6440;44.616;2.032;2022-07-29T06:17:05;18.30;99.90
12752;DHT22;6440;44.616;2.032;2022-07-29T06:19:34;18.30;99.90
12752;DHT22;6440;44.616;2.032;2022-07-29T06:22:01;18.30;99.90
12752;DHT22;6440;44.616;2.032;2022-07-29T06:24:30;18.40;99.90
12752;DHT22;6440;44.616;2.032;2022-07-29T06:26:59;18.50;99.90
12752;DHT22;6440;44.616;2.032;2022-07-29T06:29:28;18.60;99.90
12752;DHT22;6440;44.616;2.032;2022-07-29T06:31:57;18.70;99.90
12752;DHT22;6440;44.616;2.032;2022-07-29T06:34:26;18.90;99.90
12752;DHT22;6440;44.616;2.032;2022-07-29T06:36:55;19.10;99.90
12752;DHT22;6440;44.616;2.032;2022-07-29T06:39:24;19.40;99.90
12752;DHT22;6440;44.616;2.032;2022-07-29T06:41:53;19.60;99.90
12752;DHT22;6440;44.616;2.032;2022-07-29T06:44:22;19.80;99.90
12752;DHT22;6440;44.616;2.032;2022-07-29T06:46:51;20.00;99.50
12752;DHT22;6440;44.616;2.032;2022-07-29T06:49:20;20.20;99.20
12752;DHT22;6440;44.616;2.032;2022-07-29T06:51:48;20.30;99.20
12752;DHT22;6440;44.616;2.032;2022-07-29T06:54:17;20.40;98.40
12752;DHT22;6440;44.616;2.032;2022-07-29T06:56:54;20.50;97.90
12752;DHT22;6440;44.616;2.032;2022-07-29T06:59:24;20.70;97.50
12752;DHT22;6440;44.616;2.032;2022-07-29T07:01:53;21.00;96.70
12752;DHT22;6440;44.616;2.032;2022-07-29T07:04:21;21.20;95.90
12752;DHT22;6440;44.616;2.032;2022-07-29T07:06:50;21.40;95.60
12752;DHT22;6440;44.616;2.032;2022-07-29T07:09:19;21.60;95.00
12752;DHT22;6440;44.616;2.032;2022-07-29T07:11:48;21.80;94.40
12752;DHT22;6440;44.616;2.032;2022-07-29T07:14:16;21.90;93.50
12752;DHT22;6440;44.616;2.032;2022-07-29T07:16:45;22.00;92.90
12752;DHT22;6440;44.616;2.032;2022-07-29T07:19:13;22.10;92.70
12752;DHT22;6440;44.616;2.032;2022-07-29T07:21:42;22.20;92.30
12752;DHT22;6440;44.616;2.032;2022-07-29T07:24:11;22.20;92.30
12752;DHT22;6440;44.616;2.032;2022-07-29T07:26:39;22.20;93.10
12752;DHT22;6440;44.616;2.032;2022-07-29T07:29:08;22.30;92.70
12752;DHT22;6440;44.616;2.032;2022-07-29T07:31:36;22.30;92.50
12752;DHT22;6440;44.616;2.032;2022-07-29T07:34:04;22.30;93.10
12752;DHT22;6440;44.616;2.032;2022-07-29T07:36:32;22.40;92.10
12752;DHT22;6440;44.616;2.032;2022-07-29T07:39:01;22.40;91.60
12752;DHT22;6440;44.616;2.032;2022-07-29T07:41:29;22.40;91.60
12752;DHT22;6440;44.616;2.032;2022-07-29T07:43:58;22.40;92.00
12752;DHT22;6440;44.616;2.032;2022-07-29T07:46:27;22.30;91.70
12752;DHT22;6440;44.616;2.032;2022-07-29T07:48:55;22.10;92.00
12752;DHT22;6440;44.616;2.032;2022-07-29T07:51:24;22.00;92.90
12752;DHT22;6440;44.616;2.032;2022-07-29T07:53:53;21.70;94.00
12752;DHT22;6440;44.616;2.032;2022-07-29T07:56:21;21.70;94.40
12752;DHT22;6440;44.616;2.032;2022-07-29T07:58:50;21.80;94.20
12752;DHT22;6440;44.616;2.032;2022-07-29T08:01:19;21.80;94.30
12752;DHT22;6440;44.616;2.032;2022-07-29T08:03:48;22.00;93.50
12752;DHT22;6440;44.616;2.032;2022-07-29T08:06:15;21.90;93.20
12752;DHT22;6440;44.616;2.032;2022-07-29T08:08:43;21.80;93.90
12752;DHT22;6440;44.616;2.032;2022-07-29T08:11:12;21.80;94.30
12752;DHT22;6440;44.616;2.032;2022-07-29T08:13:41;21.70;95.10
12752;DHT22;6440;44.616;2.032;2022-07-29T08:16:09;21.80;95.80
12752;DHT22;6440;44.616;2.032;2022-07-29T08:18:38;21.80;95.30
12752;DHT22;6440;44.616;2.032;2022-07-29T08:21:05;21.80;94.90
12752;DHT22;6440;44.616;2.032;2022-07-29T08:23:33;21.90;94.50
12752;DHT22;6440;44.616;2.032;2022-07-29T08:26:17;21.90;94.60
12752;DHT22;6440;44.616;2.032;2022-07-29T08:28:45;22.00;95.90
12752;DHT22;6440;44.616;2.032;2022-07-29T08:31:12;22.20;97.40
12752;DHT22;6440;44.616;2.032;2022-07-29T08:33:41;22.40;96.60
12752;DHT22;6440;44.616;2.032;2022-07-29T08:36:09;22.90;96.00
12752;DHT22;6440;44.616;2.032;2022-07-29T08:38:38;23.80;90.50
12752;DHT22;6440;44.616;2.032;2022-07-29T08:41:06;24.30;90.00
12752;DHT22;6440;44.616;2.032;2022-07-29T08:43:35;24.50;88.40
12752;DHT22;6440;44.616;2.032;2022-07-29T08:46:04;24.50;87.10
12752;DHT22;6440;44.616;2.032;2022-07-29T08:48:32;24.00;88.20
12752;DHT22;6440;44.616;2.032;2022-07-29T08:51:00;23.60;89.50
12752;DHT22;6440;44.616;2.032;2022-07-29T08:53:28;23.40;90.10
12752;DHT22;6440;44.616;2.032;2022-07-29T08:55:56;23.20;90.80
12752;DHT22;6440;44.616;2.032;2022-07-29T08:58:24;23.00;91.10
12752;DHT22;6440;44.616;2.032;2022-07-29T09:00:52;22.90;91.60
12752;DHT22;6440;44.616;2.032;2022-07-29T09:03:20;22.90;92.50
12752;DHT22;6440;44.616;2.032;2022-07-29T09:05:47;22.80;93.70
12752;DHT22;6440;44.616;2.032;2022-07-29T09:08:15;22.90;94.30
12752;DHT22;6440;44.616;2.032;2022-07-29T09:10:43;22.90;97.40
12752;DHT22;6440;44.616;2.032;2022-07-29T09:13:10;23.10;95.30
12752;DHT22;6440;44.616;2.032;2022-07-29T09:15:39;23.10;94.80
12752;DHT22;6440;44.616;2.032;2022-07-29T09:18:08;23.20;93.40
12752;DHT22;6440;44.616;2.032;2022-07-29T09:20:37;23.40;94.00
12752;DHT22;6440;44.616;2.032;2022-07-29T09:23:11;23.90;95.60
12752;DHT22;6440;44.616;2.032;2022-07-29T09:25:39;25.30;91.60
12752;DHT22;6440;44.616;2.032;2022-07-29T09:28:08;26.60;85.10
12752;DHT22;6440;44.616;2.032;2022-07-29T09:30:51;27.20;82.30
12752;DHT22;6440;44.616;2.032;2022-07-29T09:33:21;28.00;82.10
12752;DHT22;6440;44.616;2.032;2022-07-29T09:35:57;29.10;80.20
12752;DHT22;6440;44.616;2.032;2022-07-29T09:38:14;29.80;74.10
12752;DHT22;6440;44.616;2.032;2022-07-29T09:40:42;30.20;74.70
12752;DHT22;6440;44.616;2.032;2022-07-29T09:43:12;30.80;72.50
12752;DHT22;6440;44.616;2.032;2022-07-29T09:45:39;31.40;72.00
12752;DHT22;6440;44.616;2.032;2022-07-29T09:48:16;32.30;69.40
12752;DHT22;6440;44.616;2.032;2022-07-29T09:50:45;32.50;68.40
12752;DHT22;6440;44.616;2.032;2022-07-29T09:53:28;31.90;70.10
12752;DHT22;6440;44.616;2.032;2022-07-29T09:55:50;31.30;69.70
12752;DHT22;6440;44.616;2.032;2022-07-29T09:58:18;30.80;70.50
12752;DHT22;6440;44.616;2.032;2022-07-29T10:00:46;30.20;72.20
12752;DHT22;6440;44.616;2.032;2022-07-29T10:03:14;29.50;73.10
12752;DHT22;6440;44.616;2.032;2022-07-29T10:05:41;28.70;75.80
12752;DHT22;6440;44.616;2.032;2022-07-29T10:08:09;28.30;78.10
12752;DHT22;6440;44.616;2.032;2022-07-29T10:10:37;27.90;78.80
12752;DHT22;6440;44.616;2.032;2022-07-29T10:13:05;27.60;79.60
12752;DHT22;6440;44.616;2.032;2022-07-29T10:15:33;27.30;83.20
12752;DHT22;6440;44.616;2.032;2022-07-29T10:18:00;27.10;83.50
12752;DHT22;6440;44.616;2.032;2022-07-29T10:20:28;26.80;84.90
12752;DHT22;6440;44.616;2.032;2022-07-29T10:22:57;26.60;85.30
12752;DHT22;6440;44.616;2.032;2022-07-29T10:25:25;26.60;86.50
12752;DHT22;6440;44.616;2.032;2022-07-29T10:27:53;26.60;85.00
12752;DHT22;6440;44.616;2.032;2022-07-29T10:30:21;26.60;84.70
12752;DHT22;6440;44.616;2.032;2022-07-29T10:39:00;27.00;84.10
12752;DHT22;6440;44.616;2.032;2022-07-29T10:41:39;27.90;82.90
12752;DHT22;6440;44.616;2.032;2022-07-29T10:44:24;28.90;80.60
12752;DHT22;6440;44.616;2.032;2022-07-29T10:46:52;29.70;78.90
12752;DHT22;6440;44.616;2.032;2022-07-29T10:49:20;30.20;78.40
12752;DHT22;6440;44.616;2.032;2022-07-29T10:51:53;30.50;75.70
12752;DHT22;6440;44.616;2.032;2022-07-29T10:54:48;30.70;73.90
12752;DHT22;6440;44.616;2.032;2022-07-29T10:57:22;30.70;75.20
12752;DHT22;6440;44.616;2.032;2022-07-29T10:59:50;30.60;75.80
12752;DHT22;6440;44.616;2.032;2022-07-29T11:05:17;30.00;74.70
12752;DHT22;6440;44.616;2.032;2022-07-29T11:10:29;29.30;75.40
12752;DHT22;6440;44.616;2.032;2022-07-29T11:12:58;29.10;77.20
12752;DHT22;6440;44.616;2.032;2022-07-29T11:15:26;29.10;77.00
12752;DHT22;6440;44.616;2.032;2022-07-29T11:18:09;29.10;76.70
12752;DHT22;6440;44.616;2.032;2022-07-29T11:20:41;29.10;77.20
12752;DHT22;6440;44.616;2.032;2022-07-29T11:23:20;28.90;78.40
12752;DHT22;6440;44.616;2.032;2022-07-29T11:29:19;28.70;78.80
12752;DHT22;6440;44.616;2.032;2022-07-29T11:31:47;28.60;79.40
12752;DHT22;6440;44.616;2.032;2022-07-29T11:37:15;28.50;79.80
12752;DHT22;6440;44.616;2.032;2022-07-29T11:39:44;29.00;78.50
12752;DHT22;6440;44.616;2.032;2022-07-29T11:42:39;28.90;78.90
12752;DHT22;6440;44.616;2.032;2022-07-29T11:45:10;29.00;78.90
12752;DHT22;6440;44.616;2.032;2022-07-29T11:47:38;29.10;78.60
12752;DHT22;6440;44.616;2.032;2022-07-29T11:50:07;29.00;78.60
12752;DHT22;6440;44.616;2.032;2022-07-29T11:52:37;28.90;78.40
12752;DHT22;6440;44.616;2.032;2022-07-29T11:55:05;28.90;77.80
12752;DHT22;6440;44.616;2.032;2022-07-29T11:57:33;28.70;78.40
12752;DHT22;6440;44.616;2.032;2022-07-29T12:00:00;28.50;79.00
12752;DHT22;6440;44.616;2.032;2022-07-29T12:02:47;28.10;80.00
12752;DHT22;6440;44.616;2.032;2022-07-29T12:05:16;27.80;80.50
12752;DHT22;6440;44.616;2.032;2022-07-29T12:07:44;27.70;80.50
12752;DHT22;6440;44.616;2.032;2022-07-29T12:10:12;27.50;81.30
12752;DHT22;6440;44.616;2.032;2022-07-29T12:12:41;27.30;82.50
12752;DHT22;6440;44.616;2.032;2022-07-29T12:15:11;27.30;82.80
12752;DHT22;6440;44.616;2.032;2022-07-29T12:17:39;27.20;82.80
12752;DHT22;6440;44.616;2.032;2022-07-29T12:20:07;27.20;83.10
12752;DHT22;6440;44.616;2.032;2022-07-29T12:22:37;27.10;83.00
12752;DHT22;6440;44.616;2.032;2022-07-29T12:25:04;27.10;82.90
12752;DHT22;6440;44.616;2.032;2022-07-29T12:27:34;27.20;82.90
12752;DHT22;6440;44.616;2.032;2022-07-29T12:30:04;27.30;82.50
12752;DHT22;6440;44.616;2.032;2022-07-29T12:32:36;27.30;82.60
12752;DHT22;6440;44.616;2.032;2022-07-29T12:35:05;27.30;82.20
12752;DHT22;6440;44.616;2.032;2022-07-29T12:37:34;27.40;82.60
12752;DHT22;6440;44.616;2.032;2022-07-29T12:40:02;27.30;82.60
12752;DHT22;6440;44.616;2.032;2022-07-29T12:42:30;27.30;82.80
12752;DHT22;6440;44.616;2.032;2022-07-29T12:44:58;27.30;82.80
12752;DHT22;6440;44.616;2.032;2022-07-29T12:47:27;27.50;83.10
12752;DHT22;6440;44.616;2.032;2022-07-29T12:52:35;28.20;81.60
12752;DHT22;6440;44.616;2.032;2022-07-29T12:55:03;28.80;79.20
12752;DHT22;6440;44.616;2.032;2022-07-29T12:57:32;29.20;78.20
12752;DHT22;6440;44.616;2.032;2022-07-29T13:00:08;29.30;77.70
12752;DHT22;6440;44.616;2.032;2022-07-29T13:02:36;29.10;78.40
12752;DHT22;6440;44.616;2.032;2022-07-29T13:05:05;29.10;78.40
12752;DHT22;6440;44.616;2.032;2022-07-29T13:07:33;29.10;77.70
12752;DHT22;6440;44.616;2.032;2022-07-29T13:10:12;29.20;77.20
12752;DHT22;6440;44.616;2.032;2022-07-29T13:15:33;29.00;76.10
12752;DHT22;6440;44.616;2.032;2022-07-29T13:18:00;29.00;77.00
12752;DHT22;6440;44.616;2.032;2022-07-29T13:20:28;29.10;75.30
12752;DHT22;6440;44.616;2.032;2022-07-29T13:22:56;29.00;75.80
12752;DHT22;6440;44.616;2.032;2022-07-29T13:25:24;29.00;76.80
12752;DHT22;6440;44.616;2.032;2022-07-29T13:27:52;29.00;76.70
12752;DHT22;6440;44.616;2.032;2022-07-29T13:30:20;29.20;75.80
12752;DHT22;6440;44.616;2.032;2022-07-29T13:32:48;29.30;74.70
12752;DHT22;6440;44.616;2.032;2022-07-29T13:35:16;29.60;74.90
12752;DHT22;6440;44.616;2.032;2022-07-29T13:37:43;29.80;73.50
12752;DHT22;6440;44.616;2.032;2022-07-29T13:40:12;29.80;74.60
12752;DHT22;6440;44.616;2.032;2022-07-29T13:42:40;29.80;73.20
12752;DHT22;6440;44.616;2.032;2022-07-29T13:45:08;29.80;74.80
12752;DHT22;6440;44.616;2.032;2022-07-29T13:47:36;29.80;74.00
12752;DHT22;6440;44.616;2.032;2022-07-29T13:50:05;29.70;74.40
12752;DHT22;6440;44.616;2.032;2022-07-29T13:52:33;29.80;74.20
12752;DHT22;6440;44.616;2.032;2022-07-29T13:55:01;30.00;74.50
12752;DHT22;6440;44.616;2.032;2022-07-29T13:57:29;30.20;74.70
12752;DHT22;6440;44.616;2.032;2022-07-29T13:59:57;30.20;74.80
12752;DHT22;6440;44.616;2.032;2022-07-29T14:02:25;30.30;75.10
12752;DHT22;6440;44.616;2.032;2022-07-29T14:04:54;30.20;74.40
12752;DHT22;6440;44.616;2.032;2022-07-29T14:07:22;30.20;73.60
12752;DHT22;6440;44.616;2.032;2022-07-29T14:09:50;30.10;73.60
12752;DHT22;6440;44.616;2.032;2022-07-29T14:12:19;30.20;74.20
12752;DHT22;6440;44.616;2.032;2022-07-29T14:14:47;30.10;73.50
12752;DHT22;6440;44.616;2.032;2022-07-29T14:17:15;29.80;73.70
12752;DHT22;6440;44.616;2.032;2022-07-29T14:19:43;29.70;74.40
12752;DHT22;6440;44.616;2.032;2022-07-29T14:22:12;29.60;74.40
12752;DHT22;6440;44.616;2.032;2022-07-29T14:24:42;29.50;74.80
12752;DHT22;6440;44.616;2.032;2022-07-29T14:27:10;29.50;74.70
12752;DHT22;6440;44.616;2.032;2022-07-29T14:29:39;29.40;75.10
12752;DHT22;6440;44.616;2.032;2022-07-29T14:32:08;29.30;74.10
12752;DHT22;6440;44.616;2.032;2022-07-29T14:34:35;29.20;73.70
12752;DHT22;6440;44.616;2.032;2022-07-29T14:37:03;29.10;73.90
12752;DHT22;6440;44.616;2.032;2022-07-29T14:39:30;29.00;73.20
12752;DHT22;6440;44.616;2.032;2022-07-29T14:41:58;29.00;73.00
12752;DHT22;6440;44.616;2.032;2022-07-29T14:44:27;29.00;72.50
12752;DHT22;6440;44.616;2.032;2022-07-29T14:46:55;29.00;72.60
12752;DHT22;6440;44.616;2.032;2022-07-29T14:49:24;29.00;73.60
12752;DHT22;6440;44.616;2.032;2022-07-29T14:51:52;29.00;73.00
12752;DHT22;6440;44.616;2.032;2022-07-29T14:54:21;29.00;72.60
12752;DHT22;6440;44.616;2.032;2022-07-29T14:56:49;28.90;72.10
12752;DHT22;6440;44.616;2.032;2022-07-29T14:59:18;28.70;74.00
12752;DHT22;6440;44.616;2.032;2022-07-29T15:01:47;28.60;71.00
12752;DHT22;6440;44.616;2.032;2022-07-29T15:04:15;28.60;72.50
12752;DHT22;6440;44.616;2.032;2022-07-29T15:06:44;28.50;73.00
12752;DHT22;6440;44.616;2.032;2022-07-29T15:09:12;28.50;72.30
12752;DHT22;6440;44.616;2.032;2022-07-29T15:11:41;28.50;72.20
12752;DHT22;6440;44.616;2.032;2022-07-29T15:14:09;28.50;72.70
12752;DHT22;6440;44.616;2.032;2022-07-29T15:16:38;28.50;73.00
12752;DHT22;6440;44.616;2.032;2022-07-29T15:19:05;28.50;73.20
12752;DHT22;6440;44.616;2.032;2022-07-29T15:21:34;28.50;72.00
12752;DHT22;6440;44.616;2.032;2022-07-29T15:24:02;28.50;72.90
12752;DHT22;6440;44.616;2.032;2022-07-29T15:26:31;28.50;73.00
12752;DHT22;6440;44.616;2.032;2022-07-29T15:28:59;28.50;72.60
12752;DHT22;6440;44.616;2.032;2022-07-29T15:31:28;28.40;72.20
12752;DHT22;6440;44.616;2.032;2022-07-29T15:33:57;28.40;72.00
12752;DHT22;6440;44.616;2.032;2022-07-29T15:36:25;28.30;70.90
12752;DHT22;6440;44.616;2.032;2022-07-29T15:38:54;28.30;71.10
12752;DHT22;6440;44.616;2.032;2022-07-29T15:41:22;28.30;71.50
12752;DHT22;6440;44.616;2.032;2022-07-29T15:43:51;28.30;71.60
12752;DHT22;6440;44.616;2.032;2022-07-29T15:46:19;28.30;71.60
12752;DHT22;6440;44.616;2.032;2022-07-29T15:48:53;28.30;71.40
12752;DHT22;6440;44.616;2.032;2022-07-29T15:51:21;28.30;71.10
12752;DHT22;6440;44.616;2.032;2022-07-29T15:53:50;28.30;71.30
12752;DHT22;6440;44.616;2.032;2022-07-29T15:56:18;28.20;71.40
12752;DHT22;6440;44.616;2.032;2022-07-29T15:58:47;28.30;71.60
12752;DHT22;6440;44.616;2.032;2022-07-29T16:01:15;28.20;71.70
12752;DHT22;6440;44.616;2.032;2022-07-29T16:03:43;28.20;72.20
12752;DHT22;6440;44.616;2.032;2022-07-29T16:06:12;28.20;72.20
12752;DHT22;6440;44.616;2.032;2022-07-29T16:08:40;28.20;72.10
12752;DHT22;6440;44.616;2.032;2022-07-29T16:11:08;28.20;72.20
12752;DHT22;6440;44.616;2.032;2022-07-29T16:13:37;28.20;71.80
12752;DHT22;6440;44.616;2.032;2022-07-29T16:16:06;28.30;71.80
12752;DHT22;6440;44.616;2.032;2022-07-29T16:18:35;28.20;72.00
12752;DHT22;6440;44.616;2.032;2022-07-29T16:21:03;28.20;72.20
12752;DHT22;6440;44.616;2.032;2022-07-29T16:23:32;28.10;72.90
12752;DHT22;6440;44.616;2.032;2022-07-29T16:26:01;28.10;72.80
12752;DHT22;6440;44.616;2.032;2022-07-29T16:28:29;28.10;72.80